Time;durP1;ratioP1;P1;durP2;ratioP2;P2;SDS_P1;SDS_P2;PMS_P1;PMS_P2;Temp;Humidity;BMP_temperature;BMP_pressure;BME280_temperature;BME280_humidity;BME280_pressure;Samples;Min_cycle;Max_cycle;Signal;HPM_P1;HPM_P2
2023/08/19 00:02:17;;;;;;;10.02;2.10;;;;;;;-145.69;nan;51634.47;5114380;28;20203;-81
2023/08/19 00:04:44;;;;;;;7.60;2.05;;;;;;;-145.69;nan;51644.38;5113708;28;20212;-81
2023/08/19 00:07:10;;;;;;;9.30;2.33;;;;;;;-145.69;nan;51658.25;5113715;28;20224;-80
2023/08/19 00:09:38;;;;;;;5.38;2.20;;;;;;;-145.69;nan;51650.31;5113768;28;20236;-81
2023/08/19 00:12:06;;;;;;;7.07;1.92;;;;;;;-145.69;nan;51646.38;5113364;28;20266;-81
2023/08/19 00:14:33;;;;;;;4.82;2.10;;;;;;;-145.69;nan;51626.56;5128281;27;20321;-80
2023/08/19 00:17:00;;;;;;;7.22;2.25;;;;;;;-145.69;nan;51644.38;5134076;27;20211;-81
2023/08/19 00:19:27;;;;;;;4.97;1.80;;;;;;;-145.69;nan;51644.38;5130220;27;20221;-81
2023/08/19 00:21:54;;;;;;;5.13;1.77;;;;;;;-145.69;nan;51672.09;5113715;28;20300;-81
2023/08/19 00:24:21;;;;;;;4.00;1.90;;;;;;;-145.69;nan;51660.22;5113634;28;20284;-81
2023/08/19 00:26:47;;;;;;;3.85;1.80;;;;;;;-145.69;nan;51685.97;5112627;28;20200;-81
2023/08/19 00:29:15;;;;;;;7.85;2.25;;;;;;;-145.69;nan;51668.16;5113105;28;20225;-80
2023/08/19 00:31:42;;;;;;;9.60;1.95;;;;;;;-145.69;nan;51666.16;5113419;28;20563;-81
2023/08/19 00:34:08;;;;;;;5.03;2.30;;;;;;;-145.69;nan;51668.16;5113737;28;20289;-81
2023/08/19 00:36:35;;;;;;;8.15;2.20;;;;;;;-145.69;nan;51668.16;5113475;28;20229;-80
2023/08/19 00:39:03;;;;;;;5.25;2.10;;;;;;;-145.69;nan;51664.19;5113450;28;20197;-81
2023/08/19 00:41:29;;;;;;;3.63;2.03;;;;;;;-145.69;nan;51642.41;5113310;28;20664;-81
2023/08/19 00:43:58;;;;;;;8.43;2.65;;;;;;;-145.69;nan;51656.25;5114239;28;20199;-81
2023/08/19 00:46:27;;;;;;;7.47;1.90;;;;;;;-145.69;nan;51660.22;5113423;28;20230;-81
2023/08/19 00:48:53;;;;;;;10.45;2.22;;;;;;;-145.69;nan;51666.16;5110226;28;20252;-81
2023/08/19 00:51:20;;;;;;;9.27;2.38;;;;;;;-145.69;nan;51676.06;5095088;28;20212;-81
2023/08/19 00:53:46;;;;;;;4.50;2.20;;;;;;;-145.69;nan;51691.91;5092868;28;20202;-80
2023/08/19 00:56:13;;;;;;;5.15;2.40;;;;;;;-145.69;nan;51693.88;5092773;28;20198;-81
2023/08/19 00:58:39;;;;;;;4.68;1.92;;;;;;;-145.69;nan;51680.03;5102788;28;20276;-80
2023/08/19 01:01:06;;;;;;;4.72;2.30;;;;;;;-145.69;nan;51658.25;5113555;28;20204;-82
2023/08/19 01:03:34;;;;;;;5.03;2.28;;;;;;;-145.69;nan;51646.38;5113486;28;20205;-81
2023/08/19 01:06:12;;;;;;;5.03;2.15;;;;;;;-145.69;nan;51691.91;5113545;28;20553;-81
2023/08/19 01:08:43;;;;;;;5.35;2.50;;;;;;;-145.69;nan;51652.31;5112699;28;20218;-80
2023/08/19 01:11:15;;;;;;;7.75;2.45;;;;;;;-145.69;nan;51691.91;5112935;28;20201;-81
2023/08/19 01:13:49;;;;;;;7.25;2.00;;;;;;;-145.69;nan;51680.03;5092219;28;20229;-81
2023/08/19 01:16:21;;;;;;;4.80;2.22;;;;;;;-145.69;nan;51672.09;5103831;28;20212;-80
2023/08/19 01:18:49;;;;;;;4.72;1.92;;;;;;;-145.69;nan;51680.03;5103882;28;20649;-80
2023/08/19 01:21:17;;;;;;;6.70;2.28;;;;;;;-145.69;nan;51678.03;5110584;28;20216;-80
2023/08/19 01:23:48;;;;;;;5.00;2.17;;;;;;;-145.69;nan;51687.94;5112926;28;20209;-81
2023/08/19 01:26:17;;;;;;;10.43;2.63;;;;;;;-145.69;nan;51676.06;5112824;28;20555;-80
2023/08/19 01:28:44;;;;;;;8.27;2.50;;;;;;;-145.69;nan;51705.75;5112999;28;20231;-81
2023/08/19 01:31:10;;;;;;;5.32;2.25;;;;;;;-145.69;nan;51695.88;5112806;28;20288;-81
2023/08/19 01:33:37;;;;;;;8.57;2.17;;;;;;;-145.69;nan;51683.97;5113556;28;20201;-81
2023/08/19 01:36:13;;;;;;;6.20;2.70;;;;;;;-145.69;nan;51660.22;5113061;28;20211;-81
2023/08/19 01:38:49;;;;;;;8.35;2.65;;;;;;;-145.69;nan;51695.88;5116652;28;20212;-80
2023/08/19 01:41:20;;;;;;;7.63;2.33;;;;;;;-145.69;nan;51715.66;5116598;28;20201;-81
2023/08/19 01:43:48;;;;;;;6.47;2.33;;;;;;;-145.69;nan;51680.03;5115382;28;20202;-81
2023/08/19 01:46:14;;;;;;;5.90;1.85;;;;;;;-145.69;nan;51695.88;5116656;28;20296;-81
2023/08/19 01:48:41;;;;;;;7.97;2.50;;;;;;;-145.69;nan;51685.97;5116560;28;20586;-81
2023/08/19 01:51:07;;;;;;;6.70;2.28;;;;;;;-145.69;nan;51695.88;5116705;28;20644;-81
2023/08/19 01:53:34;;;;;;;8.25;2.35;;;;;;;-145.69;nan;51701.81;5117116;28;20201;-81
2023/08/19 01:56:00;;;;;;;4.88;2.22;;;;;;;-145.69;nan;51660.22;5117590;28;20204;-81
2023/08/19 01:58:28;;;;;;;9.00;2.45;;;;;;;-145.69;nan;51699.81;5116587;28;20644;-81
2023/08/19 02:00:55;;;;;;;6.63;2.25;;;;;;;-145.69;nan;51699.81;5116814;28;20205;-82
2023/08/19 02:03:21;;;;;;;6.97;2.43;;;;;;;-145.69;nan;51670.13;5115126;28;20431;-80
2023/08/19 02:05:48;;;;;;;9.15;2.45;;;;;;;-145.69;nan;51715.66;5115639;28;20197;-81
2023/08/19 02:08:14;;;;;;;13.13;2.70;;;;;;;-145.69;nan;51680.03;5118608;27;20200;-80
2023/08/19 02:10:42;;;;;;;6.13;2.03;;;;;;;-145.69;nan;51699.81;5135634;27;20207;-80
2023/08/19 02:13:09;;;;;;;5.45;2.38;;;;;;;-145.69;nan;51697.84;5136449;27;20207;-80
2023/08/19 02:15:38;;;;;;;6.50;2.50;;;;;;;-145.69;nan;51707.75;5136165;27;20239;-79
2023/08/19 02:18:05;;;;;;;5.78;2.90;;;;;;;-145.69;nan;51719.63;5127128;27;20280;-80
2023/08/19 02:20:31;;;;;;;6.03;2.30;;;;;;;-145.69;nan;51699.81;5115539;28;20185;-80
2023/08/19 02:23:00;;;;;;;7.93;2.65;;;;;;;-145.69;nan;51691.91;5115893;28;20198;-80
2023/08/19 02:25:26;;;;;;;6.90;2.35;;;;;;;-145.69;nan;51695.88;5115634;28;20575;-81
2023/08/19 02:27:53;;;;;;;6.40;2.58;;;;;;;-145.69;nan;51687.94;5115666;28;20275;-80
2023/08/19 02:30:19;;;;;;;7.28;2.45;;;;;;;-145.69;nan;51695.88;5115481;28;20225;-81
2023/08/19 02:32:47;;;;;;;8.55;2.70;;;;;;;-145.69;nan;51707.75;5115672;28;20704;-80
2023/08/19 02:35:14;;;;;;;8.30;2.40;;;;;;;-145.69;nan;51695.88;5115449;28;20220;-80
2023/08/19 02:37:40;;;;;;;7.65;2.55;;;;;;;-145.69;nan;51699.81;5115697;28;20205;-80
2023/08/19 02:40:08;;;;;;;5.25;2.30;;;;;;;-145.69;nan;51682.00;5115376;28;20212;-80
2023/08/19 02:42:34;;;;;;;4.57;2.35;;;;;;;-145.69;nan;51727.53;5115068;28;20660;-81
2023/08/19 02:45:02;;;;;;;11.43;2.25;;;;;;;-145.69;nan;51743.38;5115681;28;20221;-81
2023/08/19 02:47:29;;;;;;;6.65;2.25;;;;;;;-145.69;nan;51733.50;5115549;28;20197;-80
2023/08/19 02:49:56;;;;;;;10.57;2.78;;;;;;;-145.69;nan;51687.94;5114228;28;20228;-81
2023/08/19 02:52:23;;;;;;;6.28;2.40;;;;;;;-145.69;nan;51707.75;5115333;28;20197;-81
2023/08/19 02:54:49;;;;;;;7.18;2.47;;;;;;;-145.69;nan;51691.91;5114945;28;20559;-80
2023/08/19 02:57:16;;;;;;;7.18;2.65;;;;;;;-145.69;nan;51737.44;5115806;28;20275;-81
2023/08/19 02:59:42;;;;;;;6.38;2.33;;;;;;;-145.69;nan;51729.53;5115158;28;20731;-81
2023/08/19 03:02:09;;;;;;;6.68;2.45;;;;;;;-145.69;nan;51713.69;5114436;28;20201;-81
2023/08/19 03:04:35;;;;;;;8.93;2.72;;;;;;;-145.69;nan;51719.63;5116739;28;20197;-81
2023/08/19 03:07:04;;;;;;;5.50;2.28;;;;;;;-145.69;nan;51719.63;5115997;28;20201;-81
2023/08/19 03:09:30;;;;;;;7.65;2.50;;;;;;;-145.69;nan;51699.81;5116715;28;20225;-81
2023/08/19 03:11:57;;;;;;;6.18;2.15;;;;;;;-145.69;nan;51711.72;5116194;28;20773;-81
2023/08/19 03:14:23;;;;;;;10.93;2.70;;;;;;;-145.69;nan;51695.88;5115365;28;20228;-81
2023/08/19 03:16:50;;;;;;;6.95;2.50;;;;;;;-145.69;nan;51713.69;5101204;28;20201;-80
2023/08/19 03:19:16;;;;;;;6.22;2.58;;;;;;;-145.69;nan;51682.00;5111833;28;20281;-81
2023/08/19 03:21:43;;;;;;;8.45;2.05;;;;;;;-145.69;nan;51707.75;5115177;28;20213;-81
2023/08/19 03:24:11;;;;;;;6.60;2.45;;;;;;;-145.69;nan;51705.75;5115120;28;20679;-81
2023/08/19 03:26:37;;;;;;;8.18;2.63;;;;;;;-145.69;nan;51711.72;5114474;28;20549;-81
2023/08/19 03:29:04;;;;;;;7.40;2.65;;;;;;;-145.69;nan;51719.63;5114446;28;20224;-81
2023/08/19 03:31:30;;;;;;;5.78;2.55;;;;;;;-145.69;nan;51719.63;5114558;28;20205;-81
2023/08/19 03:33:57;;;;;;;10.27;2.65;;;;;;;-145.69;nan;51713.69;5114302;28;20201;-81
2023/08/19 03:36:23;;;;;;;4.80;2.45;;;;;;;-145.69;nan;51705.75;5114403;28;20200;-81
2023/08/19 03:38:50;;;;;;;11.30;2.50;;;;;;;-145.69;nan;51705.75;5114402;28;20193;-81
2023/08/19 03:41:18;;;;;;;4.53;2.20;;;;;;;-145.69;nan;51691.91;5114208;28;20197;-81
2023/08/19 03:43:44;;;;;;;6.60;2.58;;;;;;;-145.69;nan;51715.66;5115251;28;20288;-80
2023/08/19 03:46:10;;;;;;;4.72;2.58;;;;;;;-145.69;nan;51695.88;5115196;28;20628;-81
2023/08/19 03:48:37;;;;;;;8.63;2.83;;;;;;;-145.69;nan;51711.72;5108932;28;20228;-81
2023/08/19 03:51:04;;;;;;;5.13;2.70;;;;;;;-145.69;nan;51719.63;5110065;28;20221;-81
2023/08/19 03:53:30;;;;;;;8.85;2.60;;;;;;;-145.69;nan;51703.78;5115748;28;20283;-81
2023/08/19 03:55:57;;;;;;;6.05;2.58;;;;;;;-145.69;nan;51699.81;5115933;28;20229;-81
2023/08/19 03:58:24;;;;;;;8.95;2.83;;;;;;;-145.69;nan;51711.72;5114266;28;20185;-81
2023/08/19 04:00:51;;;;;;;7.90;2.47;;;;;;;-145.69;nan;51731.50;5114479;28;20213;-81
2023/08/19 04:03:17;;;;;;;6.20;2.75;;;;;;;-145.69;nan;51739.44;5113586;28;20660;-81
2023/08/19 04:05:44;;;;;;;7.72;2.30;;;;;;;-145.69;nan;51709.72;5113820;28;20197;-81
2023/08/19 04:08:10;;;;;;;6.00;2.40;;;;;;;-145.69;nan;51721.59;5113895;28;20200;-81
2023/08/19 04:10:37;;;;;;;12.77;2.72;;;;;;;-145.69;nan;51719.63;5123105;27;20225;-81
2023/08/19 04:13:04;;;;;;;7.35;2.90;;;;;;;-145.69;nan;51731.50;5113896;28;20246;-80
2023/08/19 04:15:33;;;;;;;6.70;2.70;;;;;;;-145.69;nan;51739.44;5113635;28;20201;-81
2023/08/19 04:18:00;;;;;;;7.25;2.97;;;;;;;-145.69;nan;51731.50;5115649;28;20280;-81
2023/08/19 04:20:26;;;;;;;7.13;2.88;;;;;;;-145.69;nan;51723.59;5115823;28;20197;-81
2023/08/19 04:22:53;;;;;;;7.00;2.50;;;;;;;-145.69;nan;51713.69;5114852;28;20655;-80
2023/08/19 04:25:19;;;;;;;7.28;2.60;;;;;;;-145.69;nan;51735.47;5114736;28;20652;-81
2023/08/19 04:27:46;;;;;;;9.00;2.72;;;;;;;-145.69;nan;51711.72;5115821;28;20197;-81
2023/08/19 04:30:14;;;;;;;9.07;2.80;;;;;;;-145.69;nan;51723.59;5115035;28;20253;-81
2023/08/19 04:32:41;;;;;;;8.65;2.55;;;;;;;-145.69;nan;51717.66;5116105;28;20194;-81
2023/08/19 04:35:11;;;;;;;7.35;2.60;;;;;;;-145.69;nan;51747.34;5114362;28;20198;-81
2023/08/19 04:37:37;;;;;;;8.90;3.22;;;;;;;-145.69;nan;51751.31;5113972;28;20667;-81
2023/08/19 04:40:08;;;;;;;3.40;2.20;;;;;;;-145.69;nan;51739.44;5114748;28;20197;-81
2023/08/19 04:42:35;;;;;;;7.10;2.72;;;;;;;-145.69;nan;51731.50;5115586;28;20209;-80
2023/08/19 04:45:02;;;;;;;11.18;3.13;;;;;;;-145.69;nan;51719.63;5113485;28;20211;-80
2023/08/19 04:47:28;;;;;;;4.72;2.55;;;;;;;-145.69;nan;51727.53;5112851;28;20254;-80
2023/08/19 04:49:56;;;;;;;9.27;2.35;;;;;;;-145.69;nan;51741.41;5112884;28;20228;-80
2023/08/19 04:52:23;;;;;;;11.23;2.70;;;;;;;-145.69;nan;51741.41;5113346;28;20201;-80
2023/08/19 04:54:49;;;;;;;7.45;2.50;;;;;;;-145.69;nan;51735.47;5114077;28;20220;-80
2023/08/19 04:57:16;;;;;;;8.10;2.47;;;;;;;-145.69;nan;51711.72;5113265;28;20193;-81
2023/08/19 04:59:42;;;;;;;12.80;2.85;;;;;;;-145.69;nan;51699.81;5113288;28;20204;-80
2023/08/19 05:02:09;;;;;;;6.45;2.22;;;;;;;-145.69;nan;51729.53;5113084;28;20213;-80
2023/08/19 05:04:35;;;;;;;4.72;2.53;;;;;;;-145.69;nan;51713.69;5113005;28;20201;-81
2023/08/19 05:07:03;;;;;;;4.50;2.30;;;;;;;-145.69;nan;51695.88;5113290;28;20193;-80
2023/08/19 05:09:29;;;;;;;5.32;2.55;;;;;;;-145.69;nan;51703.78;5112791;28;20224;-80
2023/08/19 05:11:56;;;;;;;5.88;2.78;;;;;;;-145.69;nan;51683.97;5113368;28;20194;-81
2023/08/19 05:14:22;;;;;;;9.35;2.97;;;;;;;-145.69;nan;51703.78;5117952;28;20229;-81
2023/08/19 05:16:49;;;;;;;12.68;2.42;;;;;;;-145.69;nan;51691.91;5118236;28;20219;-81
2023/08/19 05:19:19;;;;;;;13.18;2.60;;;;;;;-145.69;nan;51735.47;5117204;28;20226;-81
2023/08/19 05:21:46;;;;;;;9.13;3.00;;;;;;;-145.69;nan;51707.75;5117596;28;20204;-82
2023/08/19 05:24:15;;;;;;;13.88;2.97;;;;;;;-145.69;nan;51680.03;5117421;28;20533;-81
2023/08/19 05:26:44;;;;;;;10.68;2.63;;;;;;;-145.69;nan;51703.78;5117062;28;20199;-81
2023/08/19 05:29:11;;;;;;;7.70;2.47;;;;;;;-145.69;nan;51705.75;5117306;28;20248;-81
2023/08/19 05:31:38;;;;;;;7.50;2.70;;;;;;;-145.69;nan;51739.44;5116843;28;20228;-81
2023/08/19 05:34:05;;;;;;;5.85;2.40;;;;;;;-145.69;nan;51691.91;5117800;28;20197;-81
2023/08/19 05:36:31;;;;;;;5.88;2.38;;;;;;;-145.69;nan;51711.72;5116433;28;20208;-81
2023/08/19 05:38:58;;;;;;;8.50;2.30;;;;;;;-145.69;nan;51685.97;5116670;28;20691;-81
2023/08/19 05:41:26;;;;;;;15.98;2.90;;;;;;;-145.69;nan;51695.88;5117038;28;20659;-81
2023/08/19 05:43:52;;;;;;;5.45;2.40;;;;;;;-145.69;nan;51707.75;5116281;28;20309;-81
2023/08/19 05:46:19;;;;;;;7.43;2.72;;;;;;;-145.69;nan;51674.09;5116471;28;20201;-81
2023/08/19 05:48:45;;;;;;;7.55;2.70;;;;;;;-145.69;nan;51683.97;5116506;28;20711;-82
2023/08/19 05:51:12;;;;;;;11.13;2.65;;;;;;;-145.69;nan;51682.00;5116890;28;20587;-81
2023/08/19 05:53:39;;;;;;;5.50;2.85;;;;;;;-145.69;nan;51691.91;5117075;28;20194;-81
2023/08/19 05:56:05;;;;;;;5.82;2.40;;;;;;;-145.69;nan;51691.91;5097725;28;20206;-81
2023/08/19 05:58:33;;;;;;;3.75;2.63;;;;;;;-145.69;nan;51683.97;5096419;28;20332;-81
2023/08/19 06:01:02;;;;;;;6.35;2.80;;;;;;;-145.69;nan;51683.97;5106342;28;20276;-80
2023/08/19 06:03:29;;;;;;;8.70;2.40;;;;;;;-145.69;nan;51687.94;5120181;27;20193;-82
2023/08/19 06:05:56;;;;;;;6.63;2.53;;;;;;;-145.69;nan;51670.13;5118818;28;20207;-81
2023/08/19 06:08:22;;;;;;;8.13;2.60;;;;;;;-145.69;nan;51683.97;5117526;28;20264;-81
2023/08/19 06:11:00;;;;;;;9.95;2.78;;;;;;;-145.69;nan;51695.88;5117292;28;20221;-81
2023/08/19 06:13:26;;;;;;;7.57;2.20;;;;;;;-145.69;nan;51680.03;5116697;28;20232;-81
2023/08/19 06:15:55;;;;;;;10.90;2.80;;;;;;;-145.69;nan;51678.03;5116308;28;20197;-82
2023/08/19 06:18:21;;;;;;;8.70;3.30;;;;;;;-145.69;nan;51670.13;5116185;28;20290;-81
2023/08/19 06:20:50;;;;;;;6.97;2.33;;;;;;;-145.69;nan;51682.00;5117472;28;20201;-81
2023/08/19 06:23:16;;;;;;;11.65;2.63;;;;;;;-145.69;nan;51658.25;5115922;28;20197;-82
2023/08/19 06:25:43;;;;;;;5.95;2.40;;;;;;;-145.69;nan;51652.31;5116812;28;20212;-82
2023/08/19 06:28:09;;;;;;;7.95;2.70;;;;;;;-145.69;nan;51640.44;5116506;28;20201;-81
2023/08/19 06:30:37;;;;;;;8.70;2.47;;;;;;;-145.69;nan;51680.03;5116225;28;20710;-81
2023/08/19 06:33:06;;;;;;;10.15;2.67;;;;;;;-145.69;nan;51624.59;5115891;28;20234;-81
2023/08/19 06:35:33;;;;;;;5.85;2.60;;;;;;;-145.69;nan;51680.03;5116084;28;20197;-81
2023/08/19 06:38:04;;;;;;;7.30;2.65;;;;;;;-145.69;nan;51670.13;5115596;28;20205;-81
2023/08/19 06:40:34;;;;;;;8.43;2.70;;;;;;;-145.69;nan;51648.34;5115299;28;20247;-82
2023/08/19 06:43:00;;;;;;;6.65;2.40;;;;;;;-145.69;nan;51660.22;5115739;28;20242;-81
2023/08/19 06:45:28;;;;;;;11.65;3.00;;;;;;;-145.69;nan;51664.19;5115663;28;20201;-81
2023/08/19 06:47:55;;;;;;;6.13;2.28;;;;;;;-145.69;nan;51664.19;5115256;28;20284;-81
2023/08/19 06:50:24;;;;;;;10.98;2.70;;;;;;;-145.69;nan;51612.72;5115203;28;20221;-82
2023/08/19 06:52:51;;;;;;;10.07;2.40;;;;;;;-145.69;nan;51668.16;5115064;28;20201;-81
2023/08/19 06:55:19;;;;;;;8.57;2.63;;;;;;;-145.69;nan;51656.25;5115079;28;20544;-82
2023/08/19 06:57:51;;;;;;;5.63;2.65;;;;;;;-145.69;nan;51676.06;5115305;28;20193;-82
2023/08/19 07:00:19;;;;;;;9.95;2.95;;;;;;;-145.69;nan;51664.19;5115035;28;20292;-81
2023/08/19 07:02:47;;;;;;;8.20;3.20;;;;;;;-145.69;nan;51632.50;5115035;28;20212;-81
2023/08/19 07:05:16;;;;;;;5.70;2.40;;;;;;;-145.69;nan;51640.44;5114383;28;20197;-82
2023/08/19 07:07:47;;;;;;;5.38;2.38;;;;;;;-145.69;nan;51632.50;5108900;28;20198;-82
2023/08/19 07:10:16;;;;;;;5.57;2.47;;;;;;;-145.69;nan;51608.75;5109068;28;20222;-82
2023/08/19 07:12:43;;;;;;;5.90;2.17;;;;;;;-145.69;nan;51668.16;5115065;28;20197;-81
2023/08/19 07:15:12;;;;;;;4.45;2.65;;;;;;;-145.69;nan;51634.47;5114419;28;20220;-82
2023/08/19 07:17:42;;;;;;;6.22;2.60;;;;;;;-145.69;nan;51620.63;5114807;28;20220;-82
2023/08/19 07:20:11;;;;;;;8.10;2.75;;;;;;;-145.69;nan;51644.38;5114381;28;20201;-82
2023/08/19 07:22:39;;;;;;;11.13;2.70;;;;;;;-145.69;nan;51656.25;5114763;28;20572;-82
2023/08/19 07:25:09;;;;;;;7.75;2.45;;;;;;;-145.69;nan;51634.47;5114520;28;20203;-81
2023/08/19 07:27:37;;;;;;;8.23;2.63;;;;;;;-145.69;nan;51628.53;5114501;28;20189;-82
2023/08/19 07:30:04;;;;;;;6.60;2.42;;;;;;;-145.69;nan;51630.53;5114355;28;20205;-81
2023/08/19 07:32:32;;;;;;;7.82;2.53;;;;;;;-145.69;nan;51644.38;5114012;28;20201;-82
2023/08/19 07:34:58;;;;;;;4.90;2.45;;;;;;;-145.69;nan;51624.59;5113972;28;20205;-82
2023/08/19 07:37:25;;;;;;;5.13;2.22;;;;;;;-145.69;nan;51616.66;5114513;28;20186;-82
2023/08/19 07:39:53;;;;;;;6.88;2.60;;;;;;;-145.69;nan;51620.63;5114154;28;20205;-82
2023/08/19 07:42:21;;;;;;;9.93;2.30;;;;;;;-145.69;nan;51610.72;5114502;28;20660;-82
2023/08/19 07:44:47;;;;;;;5.90;2.55;;;;;;;-145.69;nan;51610.72;5112701;28;20648;-82
2023/08/19 07:47:14;;;;;;;7.85;2.60;;;;;;;-145.69;nan;51602.81;5103093;28;20206;-82
2023/08/19 07:49:40;;;;;;;4.82;2.53;;;;;;;-145.69;nan;51608.75;5113852;28;20189;-81
2023/08/19 07:52:07;;;;;;;10.80;2.75;;;;;;;-145.69;nan;51600.81;5130364;27;20229;-82
2023/08/19 07:54:34;;;;;;;6.45;2.20;;;;;;;-145.69;nan;51594.88;5116081;27;20231;-83
2023/08/19 07:57:00;;;;;;;6.43;2.08;;;;;;;-145.69;nan;51592.91;5117111;27;20217;-83
2023/08/19 07:59:28;;;;;;;7.32;2.70;;;;;;;-145.69;nan;51596.88;5113690;28;20652;-83
2023/08/19 08:01:55;;;;;;;5.60;2.28;;;;;;;-145.69;nan;51608.75;5102516;28;20676;-84
2023/08/19 08:04:22;;;;;;;6.68;2.30;;;;;;;-145.69;nan;51608.75;5113476;28;20652;-83
2023/08/19 08:06:49;;;;;;;14.27;2.33;;;;;;;-145.69;nan;51588.94;5113740;28;20744;-83
2023/08/19 08:09:16;;;;;;;6.82;2.05;;;;;;;-145.69;nan;51571.13;5113714;28;20662;-83
2023/08/19 08:11:48;;;;;;;8.15;2.00;;;;;;;-145.69;nan;51581.03;5113627;28;20225;-83
2023/08/19 08:14:15;;;;;;;7.03;2.42;;;;;;;-145.69;nan;51581.03;5116336;27;20754;-82
2023/08/19 08:16:43;;;;;;;6.80;2.15;;;;;;;-145.69;nan;51584.97;5134506;27;20201;-82
2023/08/19 08:19:10;;;;;;;4.90;1.90;;;;;;;-145.69;nan;51588.94;5134961;27;20206;-82
2023/08/19 08:21:36;;;;;;;5.43;2.35;;;;;;;-145.69;nan;51606.75;5134541;27;20197;-82
2023/08/19 08:24:03;;;;;;;8.48;2.47;;;;;;;-145.69;nan;51577.06;5114915;28;20194;-82
2023/08/19 08:26:29;;;;;;;6.93;2.25;;;;;;;-145.69;nan;51553.31;5113872;28;20254;-82
2023/08/19 08:28:56;;;;;;;5.93;2.22;;;;;;;-145.69;nan;51565.19;5114115;28;20572;-82
2023/08/19 08:31:23;;;;;;;8.25;1.92;;;;;;;-145.69;nan;51563.22;5113123;28;20229;-83
2023/08/19 08:33:51;;;;;;;7.60;2.38;;;;;;;-145.69;nan;51559.25;5114679;28;20233;-82
2023/08/19 08:36:18;;;;;;;9.65;2.63;;;;;;;-145.69;nan;51584.97;5113860;28;20197;-82
2023/08/19 08:38:44;;;;;;;11.13;2.42;;;;;;;-145.69;nan;51584.97;5113878;28;20204;-82
2023/08/19 08:41:13;;;;;;;9.88;2.45;;;;;;;-145.69;nan;51551.31;5104415;28;20190;-83
2023/08/19 08:43:40;;;;;;;6.07;2.50;;;;;;;-145.69;nan;51592.91;5093739;28;20209;-82
2023/08/19 08:46:07;;;;;;;7.50;1.92;;;;;;;-145.69;nan;51565.19;5093255;28;20628;-82
2023/08/19 08:48:36;;;;;;;3.10;2.08;;;;;;;-145.69;nan;51573.09;5093460;28;20194;-82
2023/08/19 08:51:05;;;;;;;15.10;2.28;;;;;;;-145.69;nan;51577.06;5106538;28;20224;-82
2023/08/19 08:53:32;;;;;;;8.32;2.20;;;;;;;-145.69;nan;51569.16;5114004;28;20201;-82
2023/08/19 08:55:59;;;;;;;5.45;2.25;;;;;;;-145.69;nan;51561.22;5113233;28;20292;-82
2023/08/19 08:58:26;;;;;;;7.18;2.28;;;;;;;-145.69;nan;51584.97;5113363;28;20197;-82
2023/08/19 09:00:54;;;;;;;6.53;2.22;;;;;;;-145.69;nan;51553.31;5113560;28;20202;-82
2023/08/19 09:03:25;;;;;;;9.27;2.28;;;;;;;-145.69;nan;51559.25;5113301;28;20201;-82
2023/08/19 09:05:54;;;;;;;6.03;2.03;;;;;;;-145.69;nan;51549.34;5113549;28;20197;-82
2023/08/19 09:08:35;;;;;;;6.43;1.90;;;;;;;-145.69;nan;51537.47;5113341;28;20198;-83
2023/08/19 09:11:03;;;;;;;8.52;2.60;;;;;;;-145.69;nan;51553.31;5113135;28;20506;-82
2023/08/19 09:13:31;;;;;;;4.55;2.15;;;;;;;-145.69;nan;51557.25;5109414;28;20225;-82
2023/08/19 09:15:58;;;;;;;6.15;2.15;;;;;;;-145.69;nan;51547.38;5114164;28;20194;-83
2023/08/19 09:18:27;;;;;;;6.95;2.38;;;;;;;-145.69;nan;51553.31;5113443;28;20194;-83
2023/08/19 09:20:54;;;;;;;3.80;2.00;;;;;;;-145.69;nan;51521.63;5113157;28;20220;-83
2023/08/19 09:23:22;;;;;;;4.30;2.10;;;;;;;-145.69;nan;51577.06;5113269;28;20193;-82
2023/08/19 09:25:48;;;;;;;4.72;1.85;;;;;;;-145.69;nan;51519.66;5113117;28;20197;-81
2023/08/19 09:28:18;;;;;;;5.57;1.95;;;;;;;-145.69;nan;51541.44;5113190;28;20200;-82
2023/08/19 09:30:44;;;;;;;3.67;2.10;;;;;;;-145.69;nan;51561.22;5112336;28;20809;-82
2023/08/19 09:33:18;;;;;;;5.93;1.83;;;;;;;-145.69;nan;51535.50;5112556;28;20209;-82
2023/08/19 09:35:45;;;;;;;3.83;2.08;;;;;;;-145.69;nan;51545.38;5112522;28;20597;-81
2023/08/19 09:38:20;;;;;;;9.27;2.13;;;;;;;-145.69;nan;51571.13;5112900;28;20207;-81
2023/08/19 09:40:57;;;;;;;2.22;1.65;;;;;;;-145.69;nan;51553.31;5112264;28;20201;-81
2023/08/19 09:43:24;;;;;;;6.53;1.95;;;;;;;-145.69;nan;51541.44;5112777;28;20205;-82
2023/08/19 09:45:50;;;;;;;7.07;1.95;;;;;;;-145.69;nan;51549.34;5112379;28;20571;-82
2023/08/19 09:48:17;;;;;;;5.43;2.00;;;;;;;-145.69;nan;51541.44;5110806;28;20197;-81
2023/08/19 09:50:45;;;;;;;7.75;2.17;;;;;;;-145.69;nan;51533.50;5112390;28;20548;-82
2023/08/19 09:53:16;;;;;;;4.07;1.90;;;;;;;-145.69;nan;51535.50;5112847;28;20194;-81
2023/08/19 09:55:46;;;;;;;4.30;2.17;;;;;;;-145.69;nan;51537.47;5112829;28;20193;-81
2023/08/19 09:58:14;;;;;;;8.20;2.17;;;;;;;-145.69;nan;51529.53;5113741;28;20197;-81
2023/08/19 10:00:41;;;;;;;503.27;276.27;;;;;;;-145.69;nan;51547.38;5116215;28;20196;-82
2023/08/19 10:03:08;;;;;;;194.05;104.30;;;;;;;-145.69;nan;51511.72;5097122;28;20685;-80
2023/08/19 10:05:39;;;;;;;94.10;51.72;;;;;;;-145.69;nan;51517.66;5116202;28;20584;-81
2023/08/19 10:08:08;;;;;;;12.90;8.65;;;;;;;-145.69;nan;51533.50;5116261;28;20555;-81
2023/08/19 10:10:40;;;;;;;6.10;2.80;;;;;;;-145.69;nan;51509.75;5115830;28;20201;-81
2023/08/19 10:13:09;;;;;;;4.88;2.53;;;;;;;-145.69;nan;51505.78;5117883;27;20308;-82
2023/08/19 10:15:38;;;;;;;4.50;2.33;;;;;;;-145.69;nan;51493.91;5136593;27;20222;-81
2023/08/19 10:18:10;;;;;;;4.32;2.08;;;;;;;-145.69;nan;51503.81;5136677;27;20228;-81
2023/08/19 10:20:40;;;;;;;5.05;1.70;;;;;;;-145.69;nan;51474.09;5136613;27;20574;-82
2023/08/19 10:23:09;;;;;;;6.45;3.25;;;;;;;-145.69;nan;51509.75;5115959;27;20201;-83
2023/08/19 10:25:36;;;;;;;6.07;2.35;;;;;;;-145.69;nan;51497.88;5115812;28;20602;-81
2023/08/19 10:28:07;;;;;;;7.55;2.22;;;;;;;-145.69;nan;51486.00;5115884;28;20201;-82
2023/08/19 10:30:35;;;;;;;5.97;2.00;;;;;;;-145.69;nan;51501.81;5115803;28;20222;-81
2023/08/19 10:33:06;;;;;;;5.93;2.00;;;;;;;-145.69;nan;51493.91;5114270;28;20221;-81
2023/08/19 10:35:58;;;;;;;5.75;1.95;;;;;;;-145.69;nan;51482.03;5096615;28;20284;-82
2023/08/19 10:38:25;;;;;;;5.43;2.30;;;;;;;-145.69;nan;51493.91;5097017;28;20835;-81
2023/08/19 10:41:02;;;;;;;4.50;2.03;;;;;;;-145.69;nan;51470.16;5115464;28;20208;-82
2023/08/19 10:43:28;;;;;;;5.57;1.90;;;;;;;-145.69;nan;51509.75;5115228;28;20261;-83
2023/08/19 10:45:58;;;;;;;7.43;2.00;;;;;;;-145.69;nan;51489.94;5115439;28;20202;-82
2023/08/19 10:48:33;;;;;;;3.53;2.15;;;;;;;-145.69;nan;51474.09;5115263;28;20201;-82
2023/08/19 10:51:00;;;;;;;3.40;1.92;;;;;;;-145.69;nan;51503.81;5115282;28;20549;-81
2023/08/19 10:53:26;;;;;;;7.43;1.80;;;;;;;-145.69;nan;51489.94;5115238;28;20197;-82
2023/08/19 10:55:53;;;;;;;5.47;1.90;;;;;;;-145.69;nan;51501.81;5115272;28;20197;-82
2023/08/19 10:58:21;;;;;;;4.38;1.80;;;;;;;-145.69;nan;51497.88;5115348;28;20220;-82
2023/08/19 11:00:49;;;;;;;3.70;2.00;;;;;;;-145.69;nan;51503.81;5115163;28;20201;-82
2023/08/19 11:03:16;;;;;;;3.20;1.80;;;;;;;-145.69;nan;51489.94;5113240;28;20208;-83
2023/08/19 11:05:49;;;;;;;6.93;1.80;;;;;;;-145.69;nan;51487.97;5114761;28;20244;-82
2023/08/19 11:08:16;;;;;;;4.22;1.73;;;;;;;-145.69;nan;51480.06;5113413;28;20213;-83
2023/08/19 11:10:45;;;;;;;6.35;2.05;;;;;;;-145.69;nan;51495.88;5103936;28;20278;-83
2023/08/19 11:13:12;;;;;;;3.05;1.77;;;;;;;-145.69;nan;51493.91;5114107;28;20256;-83
2023/08/19 11:15:39;;;;;;;3.88;2.00;;;;;;;-145.69;nan;51450.34;5114905;28;20216;-83
2023/08/19 11:18:06;;;;;;;3.85;1.70;;;;;;;-145.69;nan;51484.00;5114586;28;20200;-82
2023/08/19 11:20:32;;;;;;;5.30;2.00;;;;;;;-145.69;nan;51456.28;5114452;28;20208;-83
2023/08/19 11:23:00;;;;;;;5.15;2.10;;;;;;;-145.69;nan;51462.22;5113322;28;20844;-82
2023/08/19 11:25:35;;;;;;;3.47;1.80;;;;;;;-145.69;nan;51466.19;5114917;28;20201;-83
2023/08/19 11:28:02;;;;;;;5.18;2.03;;;;;;;-145.69;nan;51462.22;5112138;28;20197;-82
2023/08/19 11:30:30;;;;;;;4.03;1.80;;;;;;;-145.69;nan;51452.34;5114452;28;20664;-82
2023/08/19 11:32:57;;;;;;;6.25;2.30;;;;;;;-145.69;nan;51446.38;5113469;28;20228;-82
2023/08/19 11:35:24;;;;;;;5.57;1.67;;;;;;;-145.69;nan;51446.38;5114217;28;20651;-81